sensor_id;sensor_type;location;lat;lon;timestamp;pressure;altitude;pressure_sealevel;temperature;humidity
62038;BME280;47991;42.974;12.082;2023-06-01T00:00:47;97749.98;;;14.07;83.39
62038;BME280;47991;42.974;12.082;2023-06-01T00:03:33;97752.05;;;14.04;83.80
62038;BME280;47991;42.974;12.082;2023-06-01T00:06:00;97749.13;;;14.01;84.32
62038;BME280;47991;42.974;12.082;2023-06-01T00:08:26;97747.14;;;14.02;84.00
62038;BME280;47991;42.974;12.082;2023-06-01T00:10:52;97745.83;;;14.09;84.05
62038;BME280;47991;42.974;12.082;2023-06-01T00:13:19;97744.16;;;14.14;84.06
62038;BME280;47991;42.974;12.082;2023-06-01T00:15:45;97742.77;;;14.21;83.87
62038;BME280;47991;42.974;12.082;2023-06-01T00:18:12;97740.75;;;14.22;83.91
62038;BME280;47991;42.974;12.082;2023-06-01T00:20:38;97742.92;;;14.22;84.10
62038;BME280;47991;42.974;12.082;2023-06-01T00:23:05;97743.81;;;14.22;84.12
62038;BME280;47991;42.974;12.082;2023-06-01T00:25:32;97743.58;;;14.19;84.43
62038;BME280;47991;42.974;12.082;2023-06-01T00:27:58;97740.33;;;14.16;84.50
62038;BME280;47991;42.974;12.082;2023-06-01T00:30:24;97741.11;;;14.10;84.42
62038;BME280;47991;42.974;12.082;2023-06-01T00:32:51;97736.97;;;14.08;84.28
62038;BME280;47991;42.974;12.082;2023-06-01T00:35:17;97739.20;;;14.05;84.23
62038;BME280;47991;42.974;12.082;2023-06-01T00:37:43;97742.23;;;14.05;84.14
62038;BME280;47991;42.974;12.082;2023-06-01T00:40:10;97739.91;;;14.01;84.50
62038;BME280;47991;42.974;12.082;2023-06-01T00:42:36;97742.52;;;13.98;84.30
62038;BME280;47991;42.974;12.082;2023-06-01T00:45:04;97741.09;;;13.95;84.73
62038;BME280;47991;42.974;12.082;2023-06-01T00:47:34;97739.70;;;13.97;84.64
62038;BME280;47991;42.974;12.082;2023-06-01T00:50:05;97736.14;;;14.02;84.60
62038;BME280;47991;42.974;12.082;2023-06-01T00:52:31;97734.10;;;14.04;84.86
62038;BME280;47991;42.974;12.082;2023-06-01T00:54:57;97729.40;;;14.10;84.76
62038;BME280;47991;42.974;12.082;2023-06-01T00:57:24;97732.11;;;14.17;85.18
62038;BME280;47991;42.974;12.082;2023-06-01T00:59:53;97730.41;;;14.15;86.76
62038;BME280;47991;42.974;12.082;2023-06-01T01:02:20;97731.38;;;14.18;86.00
62038;BME280;47991;42.974;12.082;2023-06-01T01:04:47;97729.67;;;14.20;85.50
62038;BME280;47991;42.974;12.082;2023-06-01T01:07:51;97728.31;;;14.18;85.56
62038;BME280;47991;42.974;12.082;2023-06-01T01:10:25;97726.79;;;14.13;85.77
62038;BME280;47991;42.974;12.082;2023-06-01T01:13:06;97728.30;;;14.10;85.69
62038;BME280;47991;42.974;12.082;2023-06-01T01:18:24;97728.50;;;14.06;85.64
62038;BME280;47991;42.974;12.082;2023-06-01T01:20:58;97728.79;;;14.07;85.58
62038;BME280;47991;42.974;12.082;2023-06-01T01:29:12;97728.83;;;14.11;85.58
62038;BME280;47991;42.974;12.082;2023-06-01T01:31:40;97730.40;;;14.11;86.01
62038;BME280;47991;42.974;12.082;2023-06-01T01:34:08;97730.16;;;14.13;86.42
62038;BME280;47991;42.974;12.082;2023-06-01T01:36:35;97727.44;;;14.18;86.19
62038;BME280;47991;42.974;12.082;2023-06-01T01:39:03;97723.14;;;14.23;85.88
62038;BME280;47991;42.974;12.082;2023-06-01T01:41:30;97724.17;;;14.24;86.07
62038;BME280;47991;42.974;12.082;2023-06-01T01:43:57;97723.80;;;14.25;86.10
62038;BME280;47991;42.974;12.082;2023-06-01T01:46:30;97722.94;;;14.27;85.92
62038;BME280;47991;42.974;12.082;2023-06-01T01:49:13;97722.86;;;14.30;85.77
62038;BME280;47991;42.974;12.082;2023-06-01T01:51:54;97724.29;;;14.29;85.66
62038;BME280;47991;42.974;12.082;2023-06-01T01:54:24;97722.55;;;14.24;85.91
62038;BME280;47991;42.974;12.082;2023-06-01T01:56:53;97722.35;;;14.17;85.94
62038;BME280;47991;42.974;12.082;2023-06-01T01:59:22;97721.27;;;14.13;86.17
62038;BME280;47991;42.974;12.082;2023-06-01T02:01:49;97720.98;;;14.16;86.09
62038;BME280;47991;42.974;12.082;2023-06-01T02:04:15;97722.34;;;14.17;86.19
62038;BME280;47991;42.974;12.082;2023-06-01T02:06:42;97720.52;;;14.22;86.59
62038;BME280;47991;42.974;12.082;2023-06-01T02:09:08;97721.39;;;14.27;86.37
62038;BME280;47991;42.974;12.082;2023-06-01T02:11:35;97718.77;;;14.29;86.33
62038;BME280;47991;42.974;12.082;2023-06-01T02:14:03;97719.48;;;14.30;86.44
62038;BME280;47991;42.974;12.082;2023-06-01T02:16:29;97720.30;;;14.31;86.32
62038;BME280;47991;42.974;12.082;2023-06-01T02:18:56;97724.41;;;14.26;86.30
62038;BME280;47991;42.974;12.082;2023-06-01T02:21:26;97725.65;;;14.18;86.11
62038;BME280;47991;42.974;12.082;2023-06-01T02:23:52;97722.46;;;14.14;86.29
62038;BME280;47991;42.974;12.082;2023-06-01T02:26:18;97723.47;;;14.15;86.18
62038;BME280;47991;42.974;12.082;2023-06-01T02:28:45;97719.19;;;14.20;86.22
62038;BME280;47991;42.974;12.082;2023-06-01T02:31:13;97719.38;;;14.19;86.52
62038;BME280;47991;42.974;12.082;2023-06-01T02:33:40;97720.61;;;14.20;86.82
62038;BME280;47991;42.974;12.082;2023-06-01T02:36:13;97719.36;;;14.24;87.04
62038;BME280;47991;42.974;12.082;2023-06-01T02:38:42;97722.45;;;14.27;87.04
62038;BME280;47991;42.974;12.082;2023-06-01T02:41:09;97722.45;;;14.31;87.06
62038;BME280;47991;42.974;12.082;2023-06-01T02:43:35;97723.47;;;14.36;87.29
62038;BME280;47991;42.974;12.082;2023-06-01T02:46:01;97724.34;;;14.40;87.74
62038;BME280;47991;42.974;12.082;2023-06-01T02:48:29;97722.06;;;14.27;88.44
62038;BME280;47991;42.974;12.082;2023-06-01T02:50:55;97722.85;;;14.21;88.00
62038;BME280;47991;42.974;12.082;2023-06-01T02:53:21;97722.99;;;14.22;87.68
62038;BME280;47991;42.974;12.082;2023-06-01T02:55:48;97722.34;;;14.21;87.56
62038;BME280;47991;42.974;12.082;2023-06-01T02:58:14;97719.15;;;14.21;87.46
62038;BME280;47991;42.974;12.082;2023-06-01T03:00:44;97719.79;;;14.22;87.60
62038;BME280;47991;42.974;12.082;2023-06-01T03:03:10;97723.06;;;14.25;87.58
62038;BME280;47991;42.974;12.082;2023-06-01T03:05:38;97722.66;;;14.22;87.97
62038;BME280;47991;42.974;12.082;2023-06-01T03:08:05;97717.20;;;14.20;88.03
62038;BME280;47991;42.974;12.082;2023-06-01T03:10:34;97714.65;;;14.22;87.87
62038;BME280;47991;42.974;12.082;2023-06-01T03:13:00;97712.64;;;14.23;87.73
62038;BME280;47991;42.974;12.082;2023-06-01T03:15:27;97713.60;;;14.26;87.78
62038;BME280;47991;42.974;12.082;2023-06-01T03:17:53;97713.35;;;14.24;87.69
62038;BME280;47991;42.974;12.082;2023-06-01T03:20:19;97714.45;;;14.22;87.78
62038;BME280;47991;42.974;12.082;2023-06-01T03:22:46;97715.48;;;14.23;88.09
62038;BME280;47991;42.974;12.082;2023-06-01T03:25:12;97716.33;;;14.24;88.34
62038;BME280;47991;42.974;12.082;2023-06-01T03:27:39;97716.25;;;14.27;88.28
62038;BME280;47991;42.974;12.082;2023-06-01T03:30:07;97714.10;;;14.30;88.56
62038;BME280;47991;42.974;12.082;2023-06-01T03:32:41;97717.52;;;14.37;88.68
62038;BME280;47991;42.974;12.082;2023-06-01T03:35:09;97718.66;;;14.31;90.75
62038;BME280;47991;42.974;12.082;2023-06-01T03:37:38;97720.31;;;14.15;91.55
62038;BME280;47991;42.974;12.082;2023-06-01T03:40:05;97720.88;;;14.06;90.49
62038;BME280;47991;42.974;12.082;2023-06-01T03:42:42;97723.02;;;14.05;89.77
62038;BME280;47991;42.974;12.082;2023-06-01T03:45:10;97719.94;;;14.07;89.11
62038;BME280;47991;42.974;12.082;2023-06-01T03:47:37;97720.94;;;14.08;89.14
62038;BME280;47991;42.974;12.082;2023-06-01T03:50:04;97719.67;;;14.13;89.02
62038;BME280;47991;42.974;12.082;2023-06-01T03:52:35;97719.68;;;14.20;88.78
62038;BME280;47991;42.974;12.082;2023-06-01T03:55:04;97724.11;;;14.33;88.64
62038;BME280;47991;42.974;12.082;2023-06-01T03:57:35;97726.21;;;14.42;88.47
62038;BME280;47991;42.974;12.082;2023-06-01T04:00:03;97732.86;;;14.40;88.16
62038;BME280;47991;42.974;12.082;2023-06-01T04:02:57;97736.29;;;14.39;89.11
62038;BME280;47991;42.974;12.082;2023-06-01T04:05:25;97736.98;;;14.40;88.97
62038;BME280;47991;42.974;12.082;2023-06-01T04:07:53;97738.66;;;14.46;88.66
62038;BME280;47991;42.974;12.082;2023-06-01T04:10:21;97737.95;;;14.58;88.50
62038;BME280;47991;42.974;12.082;2023-06-01T04:12:48;97740.29;;;14.62;87.87
62038;BME280;47991;42.974;12.082;2023-06-01T04:15:17;97739.29;;;14.65;87.95
62038;BME280;47991;42.974;12.082;2023-06-01T04:17:45;97740.11;;;14.70;87.65
62038;BME280;47991;42.974;12.082;2023-06-01T04:20:13;97738.42;;;14.72;87.50
62038;BME280;47991;42.974;12.082;2023-06-01T04:22:41;97738.77;;;14.80;87.25
62038;BME280;47991;42.974;12.082;2023-06-01T04:25:09;97737.60;;;14.86;87.01
62038;BME280;47991;42.974;12.082;2023-06-01T04:27:42;97742.86;;;15.04;86.87
62038;BME280;47991;42.974;12.082;2023-06-01T04:30:12;97741.54;;;15.20;86.28
62038;BME280;47991;42.974;12.082;2023-06-01T04:32:39;97740.92;;;15.26;86.17
62038;BME280;47991;42.974;12.082;2023-06-01T04:35:07;97738.84;;;15.32;86.02
62038;BME280;47991;42.974;12.082;2023-06-01T04:37:34;97738.39;;;15.52;85.88
62038;BME280;47991;42.974;12.082;2023-06-01T04:40:02;97733.11;;;15.95;85.17
62038;BME280;47991;42.974;12.082;2023-06-01T04:42:33;97733.23;;;16.00;84.89
62038;BME280;47991;42.974;12.082;2023-06-01T04:45:01;97732.27;;;15.94;84.85
62038;BME280;47991;42.974;12.082;2023-06-01T04:47:31;97728.32;;;16.12;84.75
62038;BME280;47991;42.974;12.082;2023-06-01T04:49:58;97728.02;;;16.21;84.68
62038;BME280;47991;42.974;12.082;2023-06-01T04:52:24;97731.19;;;16.32;84.76
62038;BME280;47991;42.974;12.082;2023-06-01T04:54:51;97728.41;;;16.35;84.79
62038;BME280;47991;42.974;12.082;2023-06-01T04:57:17;97728.14;;;16.36;85.20
62038;BME280;47991;42.974;12.082;2023-06-01T04:59:45;97730.44;;;16.44;84.72
62038;BME280;47991;42.974;12.082;2023-06-01T05:02:11;97733.60;;;16.71;84.27
62038;BME280;47991;42.974;12.082;2023-06-01T05:04:38;97729.01;;;17.45;82.16
62038;BME280;47991;42.974;12.082;2023-06-01T05:07:06;97724.52;;;17.99;80.53
62038;BME280;47991;42.974;12.082;2023-06-01T05:09:33;97723.79;;;17.81;80.63
62038;BME280;47991;42.974;12.082;2023-06-01T05:12:00;97724.20;;;17.80;79.87
62038;BME280;47991;42.974;12.082;2023-06-01T05:14:27;97724.76;;;18.60;78.65
62038;BME280;47991;42.974;12.082;2023-06-01T05:16:54;97726.19;;;19.10;75.62
62038;BME280;47991;42.974;12.082;2023-06-01T05:19:22;97729.41;;;18.73;75.44
62038;BME280;47991;42.974;12.082;2023-06-01T05:21:48;97729.52;;;18.38;76.44
62038;BME280;47991;42.974;12.082;2023-06-01T05:24:14;97728.77;;;18.18;77.17
62038;BME280;47991;42.974;12.082;2023-06-01T05:26:41;97735.58;;;17.93;78.04
62038;BME280;47991;42.974;12.082;2023-06-01T05:29:07;97742.69;;;17.47;79.39
62038;BME280;47991;42.974;12.082;2023-06-01T05:31:34;97746.72;;;17.13;80.71
62038;BME280;47991;42.974;12.082;2023-06-01T05:34:00;97746.45;;;17.06;81.37
62038;BME280;47991;42.974;12.082;2023-06-01T05:36:26;97744.80;;;17.13;81.60
62038;BME280;47991;42.974;12.082;2023-06-01T05:38:53;97745.13;;;17.32;80.94
62038;BME280;47991;42.974;12.082;2023-06-01T05:41:20;97746.02;;;17.42;80.54
62038;BME280;47991;42.974;12.082;2023-06-01T05:43:46;97743.98;;;17.52;80.13
62038;BME280;47991;42.974;12.082;2023-06-01T05:46:12;97748.27;;;17.59;79.60
62038;BME280;47991;42.974;12.082;2023-06-01T05:48:39;97748.42;;;17.59;79.53
62038;BME280;47991;42.974;12.082;2023-06-01T05:51:05;97751.64;;;17.63;79.46
62038;BME280;47991;42.974;12.082;2023-06-01T05:53:32;97751.45;;;17.63;79.30
62038;BME280;47991;42.974;12.082;2023-06-01T05:55:58;97756.70;;;17.65;79.72
62038;BME280;47991;42.974;12.082;2023-06-01T05:58:24;97759.17;;;17.81;79.79
62038;BME280;47991;42.974;12.082;2023-06-01T06:00:50;97755.38;;;18.16;79.69
62038;BME280;47991;42.974;12.082;2023-06-01T06:03:17;97753.52;;;18.53;78.82
62038;BME280;47991;42.974;12.082;2023-06-01T06:05:44;97751.09;;;18.87;77.44
62038;BME280;47991;42.974;12.082;2023-06-01T06:08:11;97747.90;;;19.12;75.59
62038;BME280;47991;42.974;12.082;2023-06-01T06:10:37;97749.36;;;19.23;75.70
62038;BME280;47991;42.974;12.082;2023-06-01T06:13:04;97751.56;;;19.22;75.39
62038;BME280;47991;42.974;12.082;2023-06-01T06:15:30;97756.52;;;19.18;76.07
62038;BME280;47991;42.974;12.082;2023-06-01T06:17:57;97756.69;;;19.29;76.08
62038;BME280;47991;42.974;12.082;2023-06-01T06:20:23;97754.55;;;19.40;74.13
62038;BME280;47991;42.974;12.082;2023-06-01T06:22:50;97755.34;;;19.58;73.89
62038;BME280;47991;42.974;12.082;2023-06-01T06:25:18;97751.52;;;19.73;73.33
62038;BME280;47991;42.974;12.082;2023-06-01T06:27:44;97751.34;;;19.82;72.56
62038;BME280;47991;42.974;12.082;2023-06-01T06:30:12;97751.10;;;19.85;71.98
62038;BME280;47991;42.974;12.082;2023-06-01T06:32:39;97753.55;;;20.05;72.49
62038;BME280;47991;42.974;12.082;2023-06-01T06:35:06;97753.02;;;20.26;71.42
62038;BME280;47991;42.974;12.082;2023-06-01T06:37:32;97752.96;;;20.41;70.44
62038;BME280;47991;42.974;12.082;2023-06-01T06:39:59;97753.55;;;20.53;69.19
62038;BME280;47991;42.974;12.082;2023-06-01T06:42:25;97754.38;;;20.60;67.75
62038;BME280;47991;42.974;12.082;2023-06-01T06:44:52;97755.00;;;20.77;68.21
62038;BME280;47991;42.974;12.082;2023-06-01T06:47:18;97759.45;;;21.13;67.60
62038;BME280;47991;42.974;12.082;2023-06-01T06:49:46;97757.73;;;21.44;65.32
62038;BME280;47991;42.974;12.082;2023-06-01T06:52:12;97756.98;;;21.40;62.17
62038;BME280;47991;42.974;12.082;2023-06-01T06:54:39;97756.61;;;21.53;64.26
62038;BME280;47991;42.974;12.082;2023-06-01T06:57:07;97752.78;;;21.76;63.11
62038;BME280;47991;42.974;12.082;2023-06-01T06:59:34;97749.28;;;21.86;62.34
62038;BME280;47991;42.974;12.082;2023-06-01T07:02:00;97749.90;;;22.00;62.34
62038;BME280;47991;42.974;12.082;2023-06-01T07:04:28;97753.73;;;22.04;61.77
62038;BME280;47991;42.974;12.082;2023-06-01T07:06:55;97750.97;;;22.07;63.16
62038;BME280;47991;42.974;12.082;2023-06-01T07:09:21;97747.91;;;22.12;61.80
62038;BME280;47991;42.974;12.082;2023-06-01T07:11:47;97746.42;;;22.03;62.27
62038;BME280;47991;42.974;12.082;2023-06-01T07:14:15;97748.33;;;21.87;61.93
62038;BME280;47991;42.974;12.082;2023-06-01T07:16:41;97746.45;;;21.78;61.57
62038;BME280;47991;42.974;12.082;2023-06-01T07:19:08;97748.70;;;21.77;60.23
62038;BME280;47991;42.974;12.082;2023-06-01T07:21:34;97746.69;;;21.75;59.96
62038;BME280;47991;42.974;12.082;2023-06-01T07:24:02;97747.00;;;21.68;59.56
62038;BME280;47991;42.974;12.082;2023-06-01T07:26:30;97746.23;;;21.57;60.51
62038;BME280;47991;42.974;12.082;2023-06-01T07:28:56;97745.40;;;21.26;59.51
62038;BME280;47991;42.974;12.082;2023-06-01T07:31:23;97744.59;;;21.42;60.17
62038;BME280;47991;42.974;12.082;2023-06-01T07:33:50;97745.55;;;21.41;59.41
62038;BME280;47991;42.974;12.082;2023-06-01T07:36:18;97749.48;;;21.47;59.22
62038;BME280;47991;42.974;12.082;2023-06-01T07:38:44;97754.18;;;21.52;60.20
62038;BME280;47991;42.974;12.082;2023-06-01T07:41:11;97756.84;;;21.62;61.12
62038;BME280;47991;42.974;12.082;2023-06-01T07:43:38;97752.16;;;21.79;61.61
62038;BME280;47991;42.974;12.082;2023-06-01T07:46:04;97748.88;;;21.94;60.87
62038;BME280;47991;42.974;12.082;2023-06-01T07:48:31;97747.59;;;22.16;58.05
62038;BME280;47991;42.974;12.082;2023-06-01T07:51:03;97743.30;;;22.49;58.18
62038;BME280;47991;42.974;12.082;2023-06-01T07:53:31;97741.32;;;22.72;58.30
62038;BME280;47991;42.974;12.082;2023-06-01T07:55:57;97739.06;;;22.85;58.31
62038;BME280;47991;42.974;12.082;2023-06-01T07:58:24;97739.77;;;22.90;57.95
62038;BME280;47991;42.974;12.082;2023-06-01T08:00:51;97738.09;;;22.97;58.09
62038;BME280;47991;42.974;12.082;2023-06-01T08:03:18;97736.41;;;23.12;57.56
62038;BME280;47991;42.974;12.082;2023-06-01T08:05:46;97733.25;;;23.36;56.36
62038;BME280;47991;42.974;12.082;2023-06-01T08:08:13;97724.23;;;23.51;55.57
62038;BME280;47991;42.974;12.082;2023-06-01T08:10:41;97718.85;;;23.47;54.63
62038;BME280;47991;42.974;12.082;2023-06-01T08:13:07;97715.73;;;23.52;55.94
62038;BME280;47991;42.974;12.082;2023-06-01T08:15:34;97716.38;;;23.61;55.68
62038;BME280;47991;42.974;12.082;2023-06-01T08:18:03;97716.02;;;23.94;55.17
62038;BME280;47991;42.974;12.082;2023-06-01T08:20:29;97716.79;;;24.05;55.77
62038;BME280;47991;42.974;12.082;2023-06-01T08:22:56;97716.08;;;23.96;55.54
62038;BME280;47991;42.974;12.082;2023-06-01T08:25:22;97715.41;;;23.78;55.61
62038;BME280;47991;42.974;12.082;2023-06-01T08:27:49;97717.27;;;23.52;54.78
62038;BME280;47991;42.974;12.082;2023-06-01T08:30:15;97723.59;;;23.21;55.44
62038;BME280;47991;42.974;12.082;2023-06-01T08:32:42;97723.42;;;23.14;55.96
62038;BME280;47991;42.974;12.082;2023-06-01T08:35:09;97727.82;;;22.93;56.65
62038;BME280;47991;42.974;12.082;2023-06-01T08:37:35;97726.70;;;22.70;57.72
62038;BME280;47991;42.974;12.082;2023-06-01T08:40:03;97724.70;;;22.59;57.63
62038;BME280;47991;42.974;12.082;2023-06-01T08:42:49;97727.34;;;22.76;57.85
62038;BME280;47991;42.974;12.082;2023-06-01T08:45:18;97732.06;;;22.96;57.53
62038;BME280;47991;42.974;12.082;2023-06-01T08:47:46;97733.23;;;22.65;56.45
62038;BME280;47991;42.974;12.082;2023-06-01T08:50:13;97737.61;;;22.65;56.99
62038;BME280;47991;42.974;12.082;2023-06-01T08:52:43;97736.38;;;22.89;57.65
62038;BME280;47991;42.974;12.082;2023-06-01T08:55:10;97735.30;;;23.26;56.75
62038;BME280;47991;42.974;12.082;2023-06-01T08:57:40;97731.06;;;23.49;54.84
62038;BME280;47991;42.974;12.082;2023-06-01T09:00:08;97732.17;;;23.82;54.56
62038;BME280;47991;42.974;12.082;2023-06-01T09:02:35;97730.08;;;23.86;54.27
62038;BME280;47991;42.974;12.082;2023-06-01T09:05:01;97731.86;;;23.64;53.30
62038;BME280;47991;42.974;12.082;2023-06-01T09:07:28;97733.66;;;23.73;54.70
62038;BME280;47991;42.974;12.082;2023-06-01T09:09:55;97729.90;;;24.07;53.30
62038;BME280;47991;42.974;12.082;2023-06-01T09:12:28;97724.23;;;24.15;50.85
62038;BME280;47991;42.974;12.082;2023-06-01T09:15:14;97722.29;;;24.36;49.69
62038;BME280;47991;42.974;12.082;2023-06-01T09:17:45;97725.63;;;24.58;47.60
62038;BME280;47991;42.974;12.082;2023-06-01T09:22:51;97728.83;;;24.12;50.88
62038;BME280;47991;42.974;12.082;2023-06-01T09:25:26;97723.21;;;24.18;50.82
62038;BME280;47991;42.974;12.082;2023-06-01T09:27:54;97720.41;;;24.30;49.44
62038;BME280;47991;42.974;12.082;2023-06-01T09:30:22;97718.20;;;24.56;49.15
62038;BME280;47991;42.974;12.082;2023-06-01T09:32:50;97713.27;;;24.86;48.01
62038;BME280;47991;42.974;12.082;2023-06-01T09:35:45;97717.23;;;24.88;46.26
62038;BME280;47991;42.974;12.082;2023-06-01T09:38:20;97713.29;;;25.05;48.52
62038;BME280;47991;42.974;12.082;2023-06-01T09:40:59;97709.58;;;25.24;47.09
62038;BME280;47991;42.974;12.082;2023-06-01T09:43:25;97704.88;;;25.58;48.10
62038;BME280;47991;42.974;12.082;2023-06-01T09:46:09;97703.33;;;25.85;47.68
62038;BME280;47991;42.974;12.082;2023-06-01T09:48:37;97702.98;;;25.98;48.05
62038;BME280;47991;42.974;12.082;2023-06-01T09:51:04;97703.13;;;26.07;46.73
62038;BME280;47991;42.974;12.082;2023-06-01T09:53:41;97696.88;;;26.18;46.20
62038;BME280;47991;42.974;12.082;2023-06-01T09:56:07;97696.57;;;26.26;46.93
62038;BME280;47991;42.974;12.082;2023-06-01T09:58:34;97695.52;;;26.23;45.47
62038;BME280;47991;42.974;12.082;2023-06-01T10:01:05;97695.02;;;26.09;44.58
62038;BME280;47991;42.974;12.082;2023-06-01T10:03:34;97695.90;;;26.05;45.15
62038;BME280;47991;42.974;12.082;2023-06-01T10:06:03;97699.25;;;25.86;44.29
62038;BME280;47991;42.974;12.082;2023-06-01T10:08:30;97701.06;;;25.64;45.58
62038;BME280;47991;42.974;12.082;2023-06-01T10:10:58;97696.48;;;25.73;44.54
62038;BME280;47991;42.974;12.082;2023-06-01T10:13:24;97694.67;;;25.97;43.11
62038;BME280;47991;42.974;12.082;2023-06-01T10:15:53;97691.10;;;26.26;44.33
62038;BME280;47991;42.974;12.082;2023-06-01T10:18:20;97687.82;;;26.43;42.12
62038;BME280;47991;42.974;12.082;2023-06-01T10:20:47;97690.17;;;26.04;43.64
62038;BME280;47991;42.974;12.082;2023-06-01T10:23:13;97689.77;;;25.58;43.09
62038;BME280;47991;42.974;12.082;2023-06-01T10:25:43;97689.64;;;25.20;45.47
62038;BME280;47991;42.974;12.082;2023-06-01T10:28:13;97690.27;;;25.07;46.08
62038;BME280;47991;42.974;12.082;2023-06-01T10:30:39;97690.56;;;24.89;46.41
62038;BME280;47991;42.974;12.082;2023-06-01T10:33:06;97690.65;;;24.78;47.03
62038;BME280;47991;42.974;12.082;2023-06-01T10:40:43;97685.92;;;24.53;48.65
62038;BME280;47991;42.974;12.082;2023-06-01T10:46:34;97676.92;;;25.31;46.26
62038;BME280;47991;42.974;12.082;2023-06-01T10:49:02;97674.44;;;25.65;45.57
62038;BME280;47991;42.974;12.082;2023-06-01T10:51:29;97674.71;;;25.64;46.70
62038;BME280;47991;42.974;12.082;2023-06-01T10:54:28;97672.91;;;25.50;46.54
62038;BME280;47991;42.974;12.082;2023-06-01T10:57:20;97668.98;;;25.49;46.93
62038;BME280;47991;42.974;12.082;2023-06-01T11:00:24;97664.67;;;25.71;46.74
62038;BME280;47991;42.974;12.082;2023-06-01T11:03:03;97664.02;;;25.64;45.71
62038;BME280;47991;42.974;12.082;2023-06-01T11:08:06;97657.28;;;25.70;44.45
62038;BME280;47991;42.974;12.082;2023-06-01T11:13:32;97651.23;;;26.10;42.90
62038;BME280;47991;42.974;12.082;2023-06-01T11:21:09;97643.23;;;25.36;44.41
62038;BME280;47991;42.974;12.082;2023-06-01T11:23:39;97641.78;;;25.15;44.71
62038;BME280;47991;42.974;12.082;2023-06-01T11:26:07;97636.73;;;25.11;45.33
62038;BME280;47991;42.974;12.082;2023-06-01T11:28:34;97638.77;;;25.33;45.05
62038;BME280;47991;42.974;12.082;2023-06-01T11:31:02;97634.23;;;25.45;44.90
62038;BME280;47991;42.974;12.082;2023-06-01T11:33:29;97633.65;;;25.36;44.89
62038;BME280;47991;42.974;12.082;2023-06-01T11:36:00;97626.55;;;25.67;44.65
62038;BME280;47991;42.974;12.082;2023-06-01T11:38:35;97622.16;;;25.92;44.09
62038;BME280;47991;42.974;12.082;2023-06-01T11:41:02;97623.70;;;26.12;43.43
62038;BME280;47991;42.974;12.082;2023-06-01T11:43:32;97619.79;;;26.13;44.52
62038;BME280;47991;42.974;12.082;2023-06-01T11:46:02;97620.98;;;26.32;46.48
62038;BME280;47991;42.974;12.082;2023-06-01T11:48:29;97614.02;;;26.57;45.58
62038;BME280;47991;42.974;12.082;2023-06-01T11:50:56;97612.35;;;26.50;43.97
62038;BME280;47991;42.974;12.082;2023-06-01T11:53:24;97610.52;;;26.50;44.23
62038;BME280;47991;42.974;12.082;2023-06-01T11:55:54;97599.75;;;26.41;44.42
62038;BME280;47991;42.974;12.082;2023-06-01T11:58:22;97602.09;;;26.43;45.03
62038;BME280;47991;42.974;12.082;2023-06-01T12:00:49;97600.25;;;26.49;44.60
62038;BME280;47991;42.974;12.082;2023-06-01T12:03:16;97600.58;;;26.19;44.64
62038;BME280;47991;42.974;12.082;2023-06-01T12:05:42;97595.08;;;26.20;43.10
62038;BME280;47991;42.974;12.082;2023-06-01T12:08:17;97594.94;;;25.79;43.80
62038;BME280;47991;42.974;12.082;2023-06-01T12:10:45;97598.36;;;25.83;44.73
62038;BME280;47991;42.974;12.082;2023-06-01T12:13:14;97595.23;;;26.05;44.98
62038;BME280;47991;42.974;12.082;2023-06-01T12:15:41;97596.15;;;26.28;45.70
62038;BME280;47991;42.974;12.082;2023-06-01T12:18:08;97590.93;;;26.39;45.00
62038;BME280;47991;42.974;12.082;2023-06-01T12:20:37;97595.55;;;26.49;45.12
62038;BME280;47991;42.974;12.082;2023-06-01T12:25:57;97585.08;;;26.16;46.30
62038;BME280;47991;42.974;12.082;2023-06-01T12:28:27;97587.14;;;26.43;45.28
62038;BME280;47991;42.974;12.082;2023-06-01T12:31:12;97583.77;;;26.32;44.91
62038;BME280;47991;42.974;12.082;2023-06-01T12:33:40;97586.01;;;26.33;45.37
62038;BME280;47991;42.974;12.082;2023-06-01T12:36:07;97593.58;;;26.51;46.45
62038;BME280;47991;42.974;12.082;2023-06-01T12:41:10;97591.01;;;27.26;45.61
62038;BME280;47991;42.974;12.082;2023-06-01T12:43:38;97597.88;;;27.02;44.83
62038;BME280;47991;42.974;12.082;2023-06-01T12:46:05;97595.69;;;26.76;44.88
62038;BME280;47991;42.974;12.082;2023-06-01T12:48:32;97598.31;;;26.58;45.56
62038;BME280;47991;42.974;12.082;2023-06-01T12:50:59;97596.95;;;26.40;45.11
62038;BME280;47991;42.974;12.082;2023-06-01T12:53:30;97594.69;;;26.18;45.69
62038;BME280;47991;42.974;12.082;2023-06-01T12:56:01;97591.32;;;26.00;46.02
62038;BME280;47991;42.974;12.082;2023-06-01T12:58:28;97586.41;;;25.94;45.86
62038;BME280;47991;42.974;12.082;2023-06-01T13:00:54;97582.08;;;26.00;45.62
62038;BME280;47991;42.974;12.082;2023-06-01T13:03:20;97574.90;;;26.13;44.77
62038;BME280;47991;42.974;12.082;2023-06-01T13:05:48;97576.63;;;26.06;45.17
62038;BME280;47991;42.974;12.082;2023-06-01T13:08:16;97573.73;;;26.16;45.27
62038;BME280;47991;42.974;12.082;2023-06-01T13:10:44;97568.64;;;26.25;45.55
62038;BME280;47991;42.974;12.082;2023-06-01T13:13:11;97567.58;;;26.38;45.12
62038;BME280;47991;42.974;12.082;2023-06-01T13:15:42;97561.95;;;26.40;44.18
62038;BME280;47991;42.974;12.082;2023-06-01T13:18:09;97557.25;;;26.25;44.60
62038;BME280;47991;42.974;12.082;2023-06-01T13:20:35;97556.17;;;26.21;44.13
62038;BME280;47991;42.974;12.082;2023-06-01T13:23:02;97546.98;;;26.23;44.72
62038;BME280;47991;42.974;12.082;2023-06-01T13:25:30;97547.25;;;26.39;43.71
62038;BME280;47991;42.974;12.082;2023-06-01T13:27:56;97545.13;;;26.29;42.94
62038;BME280;47991;42.974;12.082;2023-06-01T13:30:23;97549.32;;;26.19;41.98
62038;BME280;47991;42.974;12.082;2023-06-01T13:32:49;97541.16;;;26.07;42.40